TNO1122 KJAX-KBHM
Flight info
| Callsign | TNO1122 |
|---|---|
| Flight time | 1h 25m |
| Altitude | 20000 |
| Route | WANDS |
| Aircraft | AT75/M-SDFGIRY/S |
Departure
| Time | 2026-04-14 11:47 |
|---|---|
| Airport | Jacksonville International Airport (KJAX) |
Arrival
| Time | 2026-04-14 13:12 |
|---|---|
| Airport | Birmingham-Shuttlesworth International Airport (KBHM) |
| Time | Latitude | Longitude | Altitude | Speed | Heading |
|---|---|---|---|---|---|
| 2026-04-14 11:32 | 30.49404 | -81.68785 | 38 ft | 0 kts | 91° |
| 2026-04-14 11:40 | 30.49404 | -81.68795 | 38 ft | 0 kts | 84° |
| 2026-04-14 11:41 | 30.49401 | -81.68695 | 38 ft | 14 kts | 72° |
| 2026-04-14 11:41 | 30.49467 | -81.68603 | 38 ft | 15 kts | 36° |
| 2026-04-14 11:41 | 30.49564 | -81.68578 | 38 ft | 15 kts | 7° |
| 2026-04-14 11:41 | 30.49672 | -81.68568 | 38 ft | 16 kts | 3° |
| 2026-04-14 11:42 | 30.49785 | -81.68553 | 38 ft | 17 kts | 14° |
| 2026-04-14 11:42 | 30.49847 | -81.68458 | 38 ft | 16 kts | 72° |
| 2026-04-14 11:42 | 30.49886 | -81.68335 | 38 ft | 17 kts | 71° |
| 2026-04-14 11:42 | 30.49924 | -81.68208 | 38 ft | 17 kts | 70° |
| 2026-04-14 11:43 | 30.49965 | -81.68078 | 38 ft | 17 kts | 70° |
| 2026-04-14 11:43 | 30.50006 | -81.67945 | 38 ft | 17 kts | 70° |
| 2026-04-14 11:43 | 30.50047 | -81.67812 | 38 ft | 18 kts | 72° |
| 2026-04-14 11:43 | 30.50089 | -81.67679 | 38 ft | 18 kts | 70° |
| 2026-04-14 11:44 | 30.50131 | -81.67546 | 38 ft | 18 kts | 69° |
| 2026-04-14 11:44 | 30.50171 | -81.67414 | 38 ft | 18 kts | 70° |
| 2026-04-14 11:44 | 30.50213 | -81.67280 | 38 ft | 18 kts | 70° |
| 2026-04-14 11:44 | 30.50255 | -81.67147 | 38 ft | 18 kts | 68° |
| 2026-04-14 11:45 | 30.50296 | -81.67013 | 38 ft | 18 kts | 70° |
| 2026-04-14 11:45 | 30.50349 | -81.66967 | 38 ft | 10 kts | 340° |
| 2026-04-14 11:45 | 30.50425 | -81.67001 | 38 ft | 13 kts | 338° |
| 2026-04-14 11:45 | 30.50500 | -81.67037 | 38 ft | 7 kts | 323° |
| 2026-04-14 11:46 | 30.50514 | -81.67078 | 38 ft | 0 kts | 251° |
| 2026-04-14 11:46 | 30.50507 | -81.67101 | 37 ft | 28 kts | 251° |
| 2026-04-14 11:46 | 30.50308 | -81.67732 | 38 ft | 127 kts | 250° |
| 2026-04-14 11:46 | 30.49973 | -81.68846 | 286 ft | 158 kts | 252° |
| 2026-04-14 11:47 | 30.49909 | -81.70191 | 679 ft | 175 kts | 281° |
| 2026-04-14 11:47 | 30.50424 | -81.71444 | 973 ft | 178 kts | 305° |
| 2026-04-14 11:47 | 30.51212 | -81.72606 | 1374 ft | 188 kts | 310° |
| 2026-04-14 11:47 | 30.52074 | -81.73802 | 1778 ft | 197 kts | 311° |
| 2026-04-14 11:48 | 30.52954 | -81.75064 | 2158 ft | 205 kts | 311° |
| 2026-04-14 11:48 | 30.53847 | -81.76390 | 2531 ft | 211 kts | 310° |
| 2026-04-14 11:48 | 30.54748 | -81.77766 | 2908 ft | 216 kts | 309° |
| 2026-04-14 11:48 | 30.55646 | -81.79169 | 3288 ft | 222 kts | 307° |
| 2026-04-14 11:49 | 30.56567 | -81.80635 | 3671 ft | 226 kts | 306° |
| 2026-04-14 11:49 | 30.57487 | -81.82122 | 4048 ft | 228 kts | 304° |
| 2026-04-14 11:49 | 30.58400 | -81.83633 | 4426 ft | 229 kts | 304° |
| 2026-04-14 11:49 | 30.59297 | -81.85158 | 4801 ft | 229 kts | 304° |
| 2026-04-14 11:50 | 30.60201 | -81.86677 | 5176 ft | 228 kts | 304° |
| 2026-04-14 11:50 | 30.61112 | -81.88195 | 5553 ft | 228 kts | 305° |
| 2026-04-14 11:50 | 30.62018 | -81.89699 | 5929 ft | 226 kts | 305° |
| 2026-04-14 11:51 | 30.63799 | -81.92655 | 6669 ft | 223 kts | 305° |
| 2026-04-14 11:51 | 30.64688 | -81.94130 | 7040 ft | 222 kts | 305° |
| 2026-04-14 11:51 | 30.65569 | -81.95594 | 7412 ft | 220 kts | 305° |
| 2026-04-14 11:51 | 30.66446 | -81.97051 | 7785 ft | 219 kts | 305° |
| 2026-04-14 11:52 | 30.67314 | -81.98495 | 8156 ft | 217 kts | 305° |
| 2026-04-14 11:52 | 30.68167 | -81.99917 | 8523 ft | 216 kts | 305° |
| 2026-04-14 11:52 | 30.69023 | -82.01342 | 8895 ft | 214 kts | 305° |
| 2026-04-14 11:52 | 30.69876 | -82.02763 | 9277 ft | 214 kts | 305° |
| 2026-04-14 11:53 | 30.70726 | -82.04180 | 9652 ft | 214 kts | 305° |
| 2026-04-14 11:53 | 30.71576 | -82.05596 | 10019 ft | 212 kts | 305° |
| 2026-04-14 11:53 | 30.72415 | -82.07000 | 10391 ft | 210 kts | 305° |
| 2026-04-14 11:53 | 30.73247 | -82.08390 | 10761 ft | 208 kts | 305° |
| 2026-04-14 11:54 | 30.74061 | -82.09749 | 11126 ft | 206 kts | 304° |
| 2026-04-14 11:54 | 30.74878 | -82.11111 | 11495 ft | 204 kts | 304° |
| 2026-04-14 11:54 | 30.75688 | -82.12460 | 11870 ft | 202 kts | 304° |
| 2026-04-14 11:54 | 30.76488 | -82.13800 | 12245 ft | 200 kts | 304° |
| 2026-04-14 11:55 | 30.77279 | -82.15128 | 12619 ft | 198 kts | 304° |
| 2026-04-14 11:55 | 30.78061 | -82.16443 | 12992 ft | 196 kts | 304° |
| 2026-04-14 11:55 | 30.78827 | -82.17729 | 13359 ft | 196 kts | 304° |
| 2026-04-14 11:55 | 30.79621 | -82.19060 | 13666 ft | 205 kts | 304° |
| 2026-04-14 11:56 | 30.80452 | -82.20454 | 13932 ft | 214 kts | 304° |
| 2026-04-14 11:56 | 30.81317 | -82.21904 | 14195 ft | 221 kts | 304° |
| 2026-04-14 11:56 | 30.82207 | -82.23397 | 14454 ft | 227 kts | 304° |
| 2026-04-14 11:56 | 30.83118 | -82.24928 | 14712 ft | 233 kts | 304° |
| 2026-04-14 11:57 | 30.84048 | -82.26491 | 14969 ft | 237 kts | 303° |
| 2026-04-14 11:57 | 30.84995 | -82.28084 | 15223 ft | 241 kts | 303° |
| 2026-04-14 11:57 | 30.85957 | -82.29701 | 15478 ft | 244 kts | 303° |
| 2026-04-14 11:57 | 30.86915 | -82.31314 | 15743 ft | 246 kts | 303° |
| 2026-04-14 11:58 | 30.87890 | -82.32957 | 16043 ft | 246 kts | 303° |
| 2026-04-14 11:58 | 30.88865 | -82.34597 | 16343 ft | 246 kts | 303° |
| 2026-04-14 11:58 | 30.89838 | -82.36235 | 16643 ft | 246 kts | 303° |
| 2026-04-14 11:58 | 30.90810 | -82.37873 | 16942 ft | 246 kts | 303° |
| 2026-04-14 11:59 | 30.91780 | -82.39508 | 17241 ft | 245 kts | 303° |
| 2026-04-14 11:59 | 30.92751 | -82.41142 | 17541 ft | 245 kts | 303° |
| 2026-04-14 11:59 | 30.93720 | -82.42776 | 17840 ft | 244 kts | 303° |
| 2026-04-14 11:59 | 30.94686 | -82.44405 | 18140 ft | 244 kts | 303° |
| 2026-04-14 12:00 | 30.95649 | -82.46029 | 18440 ft | 243 kts | 302° |
| 2026-04-14 12:00 | 30.96598 | -82.47629 | 18735 ft | 243 kts | 302° |
| 2026-04-14 12:00 | 30.97554 | -82.49244 | 19033 ft | 242 kts | 302° |
| 2026-04-14 12:00 | 30.98509 | -82.50856 | 19333 ft | 241 kts | 302° |
| 2026-04-14 12:01 | 30.99460 | -82.52463 | 19631 ft | 240 kts | 302° |
| 2026-04-14 12:01 | 31.00410 | -82.54070 | 19872 ft | 243 kts | 302° |
| 2026-04-14 12:01 | 31.01379 | -82.55715 | 19975 ft | 250 kts | 302° |
| 2026-04-14 12:01 | 31.02376 | -82.57409 | 20047 ft | 255 kts | 302° |
| 2026-04-14 12:02 | 31.03378 | -82.59107 | 20185 ft | 252 kts | 302° |
| 2026-04-14 12:02 | 31.04369 | -82.60784 | 20285 ft | 251 kts | 302° |
| 2026-04-14 12:02 | 31.05365 | -82.62473 | 20321 ft | 253 kts | 302° |
| 2026-04-14 12:02 | 31.06357 | -82.64161 | 20330 ft | 255 kts | 302° |
| 2026-04-14 12:03 | 31.07366 | -82.65878 | 20332 ft | 258 kts | 302° |
| 2026-04-14 12:03 | 31.08385 | -82.67613 | 20332 ft | 260 kts | 302° |
| 2026-04-14 12:03 | 31.09398 | -82.69339 | 20331 ft | 261 kts | 302° |
| 2026-04-14 12:03 | 31.10430 | -82.71098 | 20331 ft | 263 kts | 302° |
| 2026-04-14 12:04 | 31.11468 | -82.72868 | 20331 ft | 264 kts | 302° |
| 2026-04-14 12:04 | 31.12510 | -82.74645 | 20331 ft | 265 kts | 302° |
| 2026-04-14 12:04 | 31.13546 | -82.76410 | 20331 ft | 267 kts | 302° |
| 2026-04-14 12:04 | 31.14601 | -82.78211 | 20331 ft | 267 kts | 302° |
| 2026-04-14 12:05 | 31.15640 | -82.79989 | 20330 ft | 268 kts | 302° |
| 2026-04-14 12:05 | 31.16700 | -82.81799 | 20329 ft | 269 kts | 302° |
| 2026-04-14 12:05 | 31.17760 | -82.83610 | 20327 ft | 270 kts | 302° |
| 2026-04-14 12:05 | 31.18819 | -82.85420 | 20328 ft | 270 kts | 302° |
| 2026-04-14 12:06 | 31.19884 | -82.87237 | 20327 ft | 270 kts | 302° |
| 2026-04-14 12:06 | 31.20934 | -82.89030 | 20326 ft | 271 kts | 302° |
| 2026-04-14 12:06 | 31.21997 | -82.90846 | 20326 ft | 271 kts | 302° |
| 2026-04-14 12:06 | 31.23065 | -82.92667 | 20326 ft | 271 kts | 302° |
| 2026-04-14 12:07 | 31.24135 | -82.94494 | 20325 ft | 271 kts | 302° |
| 2026-04-14 12:07 | 31.25200 | -82.96318 | 20325 ft | 271 kts | 302° |
| 2026-04-14 12:07 | 31.26267 | -82.98144 | 20325 ft | 272 kts | 302° |
| 2026-04-14 12:07 | 31.27320 | -82.99946 | 20325 ft | 272 kts | 302° |
| 2026-04-14 12:08 | 31.28389 | -83.01774 | 20325 ft | 270 kts | 302° |
| 2026-04-14 12:08 | 31.29442 | -83.03576 | 20323 ft | 266 kts | 302° |
| 2026-04-14 12:08 | 31.30483 | -83.05351 | 20323 ft | 262 kts | 302° |
| 2026-04-14 12:08 | 31.31499 | -83.07081 | 20323 ft | 258 kts | 302° |
| 2026-04-14 12:09 | 31.32513 | -83.08806 | 20323 ft | 255 kts | 302° |
| 2026-04-14 12:09 | 31.33515 | -83.10511 | 20323 ft | 252 kts | 302° |
| 2026-04-14 12:09 | 31.34508 | -83.12201 | 20326 ft | 250 kts | 302° |
| 2026-04-14 12:09 | 31.35487 | -83.13872 | 20322 ft | 248 kts | 302° |
| 2026-04-14 12:10 | 31.36444 | -83.15506 | 20323 ft | 246 kts | 302° |
| 2026-04-14 12:10 | 31.37405 | -83.17150 | 20324 ft | 244 kts | 302° |
| 2026-04-14 12:10 | 31.38360 | -83.18787 | 20324 ft | 242 kts | 302° |
| 2026-04-14 12:10 | 31.39312 | -83.20418 | 20325 ft | 241 kts | 302° |
| 2026-04-14 12:11 | 31.40256 | -83.22039 | 20324 ft | 240 kts | 302° |
| 2026-04-14 12:11 | 31.41197 | -83.23654 | 20325 ft | 239 kts | 302° |
| 2026-04-14 12:11 | 31.42120 | -83.25241 | 20325 ft | 238 kts | 302° |
| 2026-04-14 12:11 | 31.43053 | -83.26847 | 20326 ft | 237 kts | 302° |
| 2026-04-14 12:12 | 31.43982 | -83.28444 | 20326 ft | 237 kts | 302° |
| 2026-04-14 12:12 | 31.44907 | -83.30036 | 20326 ft | 236 kts | 302° |
| 2026-04-14 12:12 | 31.45830 | -83.31626 | 20326 ft | 236 kts | 301° |
| 2026-04-14 12:12 | 31.46752 | -83.33214 | 20324 ft | 235 kts | 301° |
| 2026-04-14 12:13 | 31.47674 | -83.34803 | 20326 ft | 235 kts | 301° |
| 2026-04-14 12:13 | 31.48590 | -83.36385 | 20327 ft | 234 kts | 301° |
| 2026-04-14 12:13 | 31.49504 | -83.37963 | 20328 ft | 234 kts | 301° |
| 2026-04-14 12:13 | 31.50405 | -83.39519 | 20329 ft | 234 kts | 301° |
| 2026-04-14 12:14 | 31.51319 | -83.41098 | 20329 ft | 233 kts | 301° |
| 2026-04-14 12:14 | 31.52233 | -83.42678 | 20327 ft | 233 kts | 301° |
| 2026-04-14 12:14 | 31.53143 | -83.44252 | 20328 ft | 233 kts | 301° |
| 2026-04-14 12:14 | 31.54055 | -83.45831 | 20327 ft | 233 kts | 301° |
| 2026-04-14 12:15 | 31.54966 | -83.47408 | 20327 ft | 233 kts | 301° |
| 2026-04-14 12:15 | 31.55865 | -83.48964 | 20326 ft | 233 kts | 301° |
| 2026-04-14 12:15 | 31.56778 | -83.50544 | 20327 ft | 233 kts | 301° |
| 2026-04-14 12:15 | 31.57687 | -83.52118 | 20328 ft | 233 kts | 301° |
| 2026-04-14 12:16 | 31.58597 | -83.53696 | 20325 ft | 233 kts | 301° |
| 2026-04-14 12:16 | 31.59505 | -83.55272 | 20326 ft | 233 kts | 301° |
| 2026-04-14 12:16 | 31.60412 | -83.56847 | 20327 ft | 232 kts | 301° |
| 2026-04-14 12:16 | 31.61311 | -83.58408 | 20327 ft | 232 kts | 301° |
| 2026-04-14 12:17 | 31.62216 | -83.59979 | 20327 ft | 232 kts | 301° |
| 2026-04-14 12:17 | 31.63109 | -83.61531 | 20326 ft | 232 kts | 301° |
| 2026-04-14 12:17 | 31.64012 | -83.63101 | 20326 ft | 232 kts | 301° |
| 2026-04-14 12:17 | 31.64625 | -83.64165 | 20326 ft | 232 kts | 301° |
| 2026-04-14 12:18 | 31.65825 | -83.66252 | 20325 ft | 232 kts | 301° |
| 2026-04-14 12:18 | 31.66729 | -83.67825 | 20325 ft | 232 kts | 301° |
| 2026-04-14 12:18 | 31.67623 | -83.69383 | 20322 ft | 232 kts | 301° |
| 2026-04-14 12:18 | 31.68530 | -83.70962 | 20321 ft | 232 kts | 301° |
| 2026-04-14 12:19 | 31.69434 | -83.72538 | 20322 ft | 232 kts | 301° |
| 2026-04-14 12:19 | 31.70336 | -83.74112 | 20324 ft | 232 kts | 301° |
| 2026-04-14 12:19 | 31.71229 | -83.75670 | 20327 ft | 232 kts | 301° |
| 2026-04-14 12:19 | 31.72134 | -83.77248 | 20327 ft | 232 kts | 301° |
| 2026-04-14 12:20 | 31.73037 | -83.78823 | 20325 ft | 232 kts | 301° |
| 2026-04-14 12:20 | 31.73929 | -83.80379 | 20324 ft | 232 kts | 301° |
| 2026-04-14 12:20 | 31.74831 | -83.81954 | 20323 ft | 232 kts | 301° |
| 2026-04-14 12:20 | 31.75734 | -83.83531 | 20322 ft | 232 kts | 301° |
| 2026-04-14 12:21 | 31.76640 | -83.85115 | 20322 ft | 232 kts | 301° |
| 2026-04-14 12:21 | 31.77541 | -83.86691 | 20318 ft | 232 kts | 301° |
| 2026-04-14 12:21 | 31.78444 | -83.88271 | 20319 ft | 232 kts | 301° |
| 2026-04-14 12:21 | 31.79333 | -83.89827 | 20319 ft | 232 kts | 301° |
| 2026-04-14 12:22 | 31.80237 | -83.91410 | 20318 ft | 232 kts | 301° |
| 2026-04-14 12:22 | 31.81141 | -83.92993 | 20317 ft | 232 kts | 301° |
| 2026-04-14 12:22 | 31.82033 | -83.94555 | 20317 ft | 232 kts | 301° |
| 2026-04-14 12:22 | 31.82936 | -83.96139 | 20316 ft | 232 kts | 301° |
| 2026-04-14 12:23 | 31.83533 | -83.97186 | 20315 ft | 232 kts | 301° |
| 2026-04-14 12:23 | 31.84732 | -83.99289 | 20313 ft | 232 kts | 301° |
| 2026-04-14 12:23 | 31.85643 | -84.00888 | 20312 ft | 232 kts | 301° |
| 2026-04-14 12:23 | 31.86533 | -84.02451 | 20311 ft | 232 kts | 301° |
| 2026-04-14 12:24 | 31.87434 | -84.04033 | 20310 ft | 233 kts | 301° |
| 2026-04-14 12:24 | 31.88335 | -84.05618 | 20309 ft | 233 kts | 301° |
| 2026-04-14 12:24 | 31.88932 | -84.06666 | 20308 ft | 233 kts | 301° |
| 2026-04-14 12:24 | 31.89833 | -84.08251 | 20306 ft | 233 kts | 301° |
| 2026-04-14 12:25 | 31.90734 | -84.09837 | 20305 ft | 233 kts | 301° |
| 2026-04-14 12:25 | 31.91927 | -84.11937 | 20303 ft | 233 kts | 301° |
| 2026-04-14 12:25 | 31.92536 | -84.13009 | 20302 ft | 233 kts | 301° |
| 2026-04-14 12:25 | 31.93436 | -84.14594 | 20301 ft | 233 kts | 301° |
| 2026-04-14 12:26 | 31.94324 | -84.16158 | 20300 ft | 233 kts | 301° |
| 2026-04-14 12:26 | 31.95223 | -84.17744 | 20299 ft | 233 kts | 301° |
| 2026-04-14 12:26 | 31.96123 | -84.19331 | 20297 ft | 233 kts | 301° |
| 2026-04-14 12:26 | 31.97023 | -84.20920 | 20295 ft | 233 kts | 301° |
| 2026-04-14 12:27 | 31.97924 | -84.22509 | 20293 ft | 233 kts | 301° |
| 2026-04-14 12:27 | 31.98824 | -84.24099 | 20290 ft | 233 kts | 301° |
| 2026-04-14 12:27 | 31.99724 | -84.25690 | 20290 ft | 233 kts | 301° |
| 2026-04-14 12:27 | 32.00615 | -84.27265 | 20289 ft | 233 kts | 301° |
| 2026-04-14 12:28 | 32.01515 | -84.28856 | 20291 ft | 233 kts | 301° |
| 2026-04-14 12:28 | 32.02416 | -84.30450 | 20291 ft | 233 kts | 301° |
| 2026-04-14 12:28 | 32.03314 | -84.32039 | 20291 ft | 233 kts | 301° |
| 2026-04-14 12:28 | 32.04212 | -84.33629 | 20292 ft | 233 kts | 301° |
| 2026-04-14 12:29 | 32.05404 | -84.35739 | 20292 ft | 233 kts | 301° |
| 2026-04-14 12:29 | 32.05998 | -84.36792 | 20292 ft | 233 kts | 301° |
| 2026-04-14 12:29 | 32.06896 | -84.38383 | 20290 ft | 233 kts | 301° |
| 2026-04-14 12:29 | 32.07796 | -84.39978 | 20290 ft | 233 kts | 301° |
| 2026-04-14 12:30 | 32.08694 | -84.41571 | 20291 ft | 233 kts | 301° |
| 2026-04-14 12:30 | 32.09581 | -84.43146 | 20292 ft | 233 kts | 301° |
| 2026-04-14 12:30 | 32.10480 | -84.44742 | 20292 ft | 232 kts | 301° |
| 2026-04-14 12:30 | 32.11369 | -84.46321 | 20292 ft | 232 kts | 301° |
| 2026-04-14 12:31 | 32.12266 | -84.47916 | 20292 ft | 232 kts | 301° |
| 2026-04-14 12:31 | 32.13162 | -84.49509 | 20291 ft | 232 kts | 301° |
| 2026-04-14 12:31 | 32.14058 | -84.51103 | 20289 ft | 232 kts | 301° |
| 2026-04-14 12:31 | 32.14946 | -84.52683 | 20289 ft | 232 kts | 301° |
| 2026-04-14 12:32 | 32.15841 | -84.54276 | 20289 ft | 232 kts | 301° |
| 2026-04-14 12:32 | 32.16724 | -84.55848 | 20289 ft | 232 kts | 301° |
| 2026-04-14 12:32 | 32.17620 | -84.57444 | 20289 ft | 232 kts | 301° |
| 2026-04-14 12:32 | 32.18512 | -84.59033 | 20289 ft | 232 kts | 301° |
| 2026-04-14 12:33 | 32.19404 | -84.60623 | 20288 ft | 232 kts | 301° |
| 2026-04-14 12:33 | 32.20296 | -84.62214 | 20288 ft | 232 kts | 301° |
| 2026-04-14 12:33 | 32.21189 | -84.63808 | 20287 ft | 232 kts | 301° |
| 2026-04-14 12:33 | 32.22070 | -84.65381 | 20287 ft | 232 kts | 301° |
| 2026-04-14 12:34 | 32.22963 | -84.66975 | 20286 ft | 232 kts | 301° |
| 2026-04-14 12:34 | 32.23856 | -84.68572 | 20285 ft | 232 kts | 301° |
| 2026-04-14 12:34 | 32.24747 | -84.70165 | 20285 ft | 232 kts | 301° |
| 2026-04-14 12:34 | 32.25629 | -84.71742 | 20285 ft | 232 kts | 301° |
| 2026-04-14 12:35 | 32.26520 | -84.73336 | 20284 ft | 232 kts | 301° |
| 2026-04-14 12:35 | 32.27414 | -84.74934 | 20283 ft | 232 kts | 301° |
| 2026-04-14 12:35 | 32.28305 | -84.76529 | 20282 ft | 232 kts | 301° |
| 2026-04-14 12:35 | 32.29195 | -84.78124 | 20281 ft | 232 kts | 301° |
| 2026-04-14 12:36 | 32.30074 | -84.79699 | 20280 ft | 232 kts | 301° |
| 2026-04-14 12:36 | 32.30965 | -84.81298 | 20278 ft | 232 kts | 301° |
| 2026-04-14 12:36 | 32.31859 | -84.82901 | 20277 ft | 232 kts | 301° |
| 2026-04-14 12:36 | 32.32748 | -84.84497 | 20279 ft | 232 kts | 301° |
| 2026-04-14 12:37 | 32.33638 | -84.86094 | 20281 ft | 232 kts | 301° |
| 2026-04-14 12:37 | 32.34526 | -84.87688 | 20281 ft | 232 kts | 301° |
| 2026-04-14 12:37 | 32.35404 | -84.89264 | 20280 ft | 232 kts | 300° |
| 2026-04-14 12:37 | 32.36296 | -84.90868 | 20280 ft | 232 kts | 300° |
| 2026-04-14 12:38 | 32.38066 | -84.94050 | 20280 ft | 232 kts | 300° |
| 2026-04-14 12:38 | 32.38953 | -84.95645 | 20281 ft | 232 kts | 300° |
| 2026-04-14 12:38 | 32.39840 | -84.97243 | 20282 ft | 232 kts | 300° |
| 2026-04-14 12:39 | 32.40727 | -84.98841 | 20283 ft | 232 kts | 300° |
| 2026-04-14 12:39 | 32.41616 | -85.00442 | 20283 ft | 232 kts | 300° |
| 2026-04-14 12:39 | 32.42494 | -85.02025 | 20286 ft | 232 kts | 300° |
| 2026-04-14 12:39 | 32.43382 | -85.03628 | 20290 ft | 232 kts | 300° |
| 2026-04-14 12:40 | 32.44272 | -85.05232 | 20292 ft | 232 kts | 300° |
| 2026-04-14 12:40 | 32.45157 | -85.06830 | 20294 ft | 232 kts | 300° |
| 2026-04-14 12:40 | 32.46043 | -85.08429 | 20295 ft | 232 kts | 300° |
| 2026-04-14 12:40 | 32.46919 | -85.10012 | 20296 ft | 232 kts | 300° |
| 2026-04-14 12:41 | 32.47807 | -85.11616 | 20296 ft | 232 kts | 300° |
| 2026-04-14 12:41 | 32.48684 | -85.13203 | 20295 ft | 232 kts | 300° |
| 2026-04-14 12:41 | 32.49569 | -85.14803 | 20296 ft | 232 kts | 300° |
| 2026-04-14 12:41 | 32.50457 | -85.16410 | 20297 ft | 232 kts | 300° |
| 2026-04-14 12:42 | 32.51345 | -85.18017 | 20298 ft | 232 kts | 300° |
| 2026-04-14 12:42 | 32.52227 | -85.19614 | 20275 ft | 231 kts | 300° |
| 2026-04-14 12:42 | 32.52329 | -85.19798 | 20262 ft | 231 kts | 300° |
| 2026-04-14 12:42 | 32.53210 | -85.21396 | 20118 ft | 234 kts | 300° |
| 2026-04-14 12:43 | 32.54108 | -85.23025 | 19954 ft | 238 kts | 300° |
| 2026-04-14 12:43 | 32.55020 | -85.24683 | 19788 ft | 241 kts | 300° |
| 2026-04-14 12:43 | 32.55943 | -85.26362 | 19620 ft | 244 kts | 300° |
| 2026-04-14 12:43 | 32.56877 | -85.28063 | 19451 ft | 246 kts | 300° |
| 2026-04-14 12:44 | 32.57814 | -85.29772 | 19277 ft | 248 kts | 300° |
| 2026-04-14 12:44 | 32.58748 | -85.31476 | 19109 ft | 250 kts | 300° |
| 2026-04-14 12:44 | 32.59698 | -85.33206 | 18941 ft | 251 kts | 300° |
| 2026-04-14 12:45 | 32.61610 | -85.36694 | 18601 ft | 252 kts | 300° |
| 2026-04-14 12:45 | 32.62568 | -85.38443 | 18432 ft | 253 kts | 300° |
| 2026-04-14 12:45 | 32.63523 | -85.40184 | 18264 ft | 254 kts | 300° |
| 2026-04-14 12:45 | 32.64487 | -85.41944 | 18092 ft | 254 kts | 300° |
| 2026-04-14 12:46 | 32.65454 | -85.43709 | 17921 ft | 255 kts | 300° |
| 2026-04-14 12:46 | 32.66410 | -85.45456 | 17753 ft | 256 kts | 300° |
| 2026-04-14 12:46 | 32.67381 | -85.47234 | 17579 ft | 257 kts | 300° |
| 2026-04-14 12:46 | 32.68355 | -85.49016 | 17407 ft | 258 kts | 300° |
| 2026-04-14 12:47 | 32.69331 | -85.50804 | 17236 ft | 258 kts | 300° |
| 2026-04-14 12:47 | 32.70316 | -85.52606 | 17065 ft | 259 kts | 300° |
| 2026-04-14 12:47 | 32.71286 | -85.54382 | 16894 ft | 259 kts | 300° |
| 2026-04-14 12:47 | 32.72269 | -85.56182 | 16724 ft | 260 kts | 300° |
| 2026-04-14 12:48 | 32.73257 | -85.57992 | 16551 ft | 260 kts | 300° |
| 2026-04-14 12:48 | 32.74245 | -85.59801 | 16381 ft | 261 kts | 300° |
| 2026-04-14 12:48 | 32.75233 | -85.61611 | 16210 ft | 261 kts | 300° |
| 2026-04-14 12:48 | 32.76210 | -85.63402 | 16042 ft | 261 kts | 300° |
| 2026-04-14 12:49 | 32.77204 | -85.65224 | 15872 ft | 262 kts | 300° |
| 2026-04-14 12:49 | 32.78197 | -85.67043 | 15702 ft | 262 kts | 301° |
| 2026-04-14 12:49 | 32.79176 | -85.68837 | 15534 ft | 262 kts | 301° |
| 2026-04-14 12:49 | 32.80166 | -85.70654 | 15365 ft | 262 kts | 301° |
| 2026-04-14 12:50 | 32.81159 | -85.72471 | 15194 ft | 261 kts | 301° |
| 2026-04-14 12:50 | 32.83129 | -85.76094 | 14851 ft | 259 kts | 301° |
| 2026-04-14 12:50 | 32.84095 | -85.77872 | 14682 ft | 258 kts | 301° |
| 2026-04-14 12:51 | 32.85072 | -85.79672 | 14511 ft | 258 kts | 301° |
| 2026-04-14 12:51 | 32.86046 | -85.81464 | 14341 ft | 257 kts | 301° |
| 2026-04-14 12:51 | 32.87018 | -85.83253 | 14170 ft | 257 kts | 301° |
| 2026-04-14 12:51 | 32.87987 | -85.85036 | 13999 ft | 257 kts | 301° |
| 2026-04-14 12:52 | 32.88957 | -85.86822 | 13829 ft | 256 kts | 301° |
| 2026-04-14 12:52 | 32.89915 | -85.88587 | 13661 ft | 257 kts | 301° |
| 2026-04-14 12:52 | 32.90888 | -85.90382 | 13490 ft | 257 kts | 301° |
| 2026-04-14 12:52 | 32.91862 | -85.92175 | 13320 ft | 257 kts | 301° |
| 2026-04-14 12:53 | 32.92824 | -85.93946 | 13151 ft | 257 kts | 301° |
| 2026-04-14 12:53 | 32.93796 | -85.95743 | 12980 ft | 257 kts | 301° |
| 2026-04-14 12:53 | 32.94770 | -85.97544 | 12820 ft | 258 kts | 301° |
| 2026-04-14 12:53 | 32.95736 | -85.99333 | 12662 ft | 262 kts | 301° |
| 2026-04-14 12:54 | 32.96726 | -86.01169 | 12478 ft | 264 kts | 301° |
| 2026-04-14 12:54 | 32.97719 | -86.03011 | 12304 ft | 263 kts | 301° |
| 2026-04-14 12:54 | 32.98703 | -86.04839 | 12133 ft | 261 kts | 301° |
| 2026-04-14 12:54 | 32.99686 | -86.06663 | 11962 ft | 260 kts | 301° |
| 2026-04-14 12:55 | 33.00664 | -86.08476 | 11791 ft | 260 kts | 301° |
| 2026-04-14 12:55 | 33.01627 | -86.10260 | 11623 ft | 259 kts | 301° |
| 2026-04-14 12:55 | 33.02605 | -86.12069 | 11452 ft | 258 kts | 301° |
| 2026-04-14 12:55 | 33.03579 | -86.13870 | 11281 ft | 258 kts | 301° |
| 2026-04-14 12:56 | 33.04554 | -86.15674 | 11110 ft | 258 kts | 301° |
| 2026-04-14 12:56 | 33.05512 | -86.17452 | 10941 ft | 258 kts | 301° |
| 2026-04-14 12:56 | 33.06486 | -86.19258 | 10770 ft | 257 kts | 301° |
| 2026-04-14 12:56 | 33.07455 | -86.21058 | 10599 ft | 257 kts | 301° |
| 2026-04-14 12:57 | 33.08425 | -86.22861 | 10428 ft | 257 kts | 301° |
| 2026-04-14 12:57 | 33.09387 | -86.24649 | 10259 ft | 258 kts | 301° |
| 2026-04-14 12:57 | 33.10358 | -86.26456 | 10088 ft | 258 kts | 301° |
| 2026-04-14 12:57 | 33.11318 | -86.28240 | 9918 ft | 258 kts | 301° |
| 2026-04-14 12:58 | 33.12290 | -86.30052 | 9748 ft | 258 kts | 301° |
| 2026-04-14 12:58 | 33.13257 | -86.31856 | 9577 ft | 258 kts | 301° |
| 2026-04-14 12:58 | 33.14221 | -86.33647 | 9409 ft | 259 kts | 300° |
| 2026-04-14 12:58 | 33.15197 | -86.35469 | 9236 ft | 259 kts | 300° |
| 2026-04-14 12:59 | 33.16265 | -86.37177 | 9071 ft | 261 kts | 308° |
| 2026-04-14 12:59 | 33.17513 | -86.38763 | 8901 ft | 262 kts | 313° |
| 2026-04-14 12:59 | 33.18861 | -86.40241 | 8731 ft | 263 kts | 316° |
| 2026-04-14 12:59 | 33.20038 | -86.41439 | 8588 ft | 264 kts | 317° |
| 2026-04-14 13:00 | 33.21207 | -86.42586 | 8448 ft | 264 kts | 317° |
| 2026-04-14 13:00 | 33.22685 | -86.43892 | 8275 ft | 263 kts | 326° |
| 2026-04-14 13:00 | 33.24286 | -86.44887 | 8108 ft | 261 kts | 332° |
| 2026-04-14 13:00 | 33.25949 | -86.45751 | 7935 ft | 259 kts | 335° |
| 2026-04-14 13:01 | 33.27615 | -86.46550 | 7765 ft | 258 kts | 336° |
| 2026-04-14 13:01 | 33.29287 | -86.47318 | 7593 ft | 256 kts | 336° |
| 2026-04-14 13:01 | 33.30967 | -86.48023 | 7423 ft | 256 kts | 340° |
| 2026-04-14 13:01 | 33.32676 | -86.48609 | 7251 ft | 255 kts | 342° |
| 2026-04-14 13:02 | 33.34392 | -86.49137 | 7084 ft | 255 kts | 343° |
| 2026-04-14 13:02 | 33.36110 | -86.49651 | 6911 ft | 254 kts | 343° |
| 2026-04-14 13:02 | 33.37822 | -86.50147 | 6735 ft | 251 kts | 343° |
| 2026-04-14 13:02 | 33.39511 | -86.50629 | 6565 ft | 249 kts | 343° |
| 2026-04-14 13:03 | 33.41176 | -86.51100 | 6399 ft | 248 kts | 343° |
| 2026-04-14 13:03 | 33.42857 | -86.51571 | 6226 ft | 246 kts | 343° |
| 2026-04-14 13:03 | 33.44524 | -86.52035 | 6049 ft | 245 kts | 344° |
| 2026-04-14 13:03 | 33.46167 | -86.52483 | 5880 ft | 244 kts | 344° |
| 2026-04-14 13:04 | 33.47822 | -86.52927 | 5709 ft | 243 kts | 344° |
| 2026-04-14 13:04 | 33.49477 | -86.53381 | 5537 ft | 243 kts | 344° |
| 2026-04-14 13:04 | 33.51124 | -86.53836 | 5368 ft | 242 kts | 343° |
| 2026-04-14 13:04 | 33.52748 | -86.54295 | 5194 ft | 242 kts | 343° |
| 2026-04-14 13:05 | 33.54367 | -86.54740 | 5103 ft | 226 kts | 344° |
| 2026-04-14 13:05 | 33.55843 | -86.54925 | 4879 ft | 203 kts | 356° |
| 2026-04-14 13:05 | 33.57186 | -86.54755 | 4691 ft | 187 kts | 8° |
| 2026-04-14 13:05 | 33.58419 | -86.54369 | 4465 ft | 182 kts | 14° |
| 2026-04-14 13:06 | 33.59631 | -86.53930 | 4206 ft | 188 kts | 15° |
| 2026-04-14 13:06 | 33.60912 | -86.53548 | 3906 ft | 191 kts | 3° |
| 2026-04-14 13:06 | 33.62202 | -86.53781 | 3699 ft | 185 kts | 338° |
| 2026-04-14 13:06 | 33.63324 | -86.54506 | 3588 ft | 184 kts | 321° |
| 2026-04-14 13:07 | 33.64341 | -86.55464 | 3525 ft | 186 kts | 316° |
| 2026-04-14 13:07 | 33.65327 | -86.56474 | 3501 ft | 186 kts | 315° |
| 2026-04-14 13:07 | 33.66148 | -86.57609 | 3480 ft | 179 kts | 294° |
| 2026-04-14 13:07 | 33.66393 | -86.59013 | 3507 ft | 170 kts | 264° |
| 2026-04-14 13:08 | 33.65989 | -86.60314 | 3504 ft | 166 kts | 234° |
| 2026-04-14 13:08 | 33.65142 | -86.61221 | 3579 ft | 153 kts | 216° |
| 2026-04-14 13:08 | 33.64310 | -86.61867 | 3562 ft | 138 kts | 215° |
| 2026-04-14 13:08 | 33.63561 | -86.62597 | 3401 ft | 140 kts | 223° |
| 2026-04-14 13:09 | 33.62932 | -86.63491 | 3155 ft | 144 kts | 233° |
| 2026-04-14 13:09 | 33.62410 | -86.64537 | 2863 ft | 147 kts | 240° |
| 2026-04-14 13:09 | 33.61954 | -86.65643 | 2502 ft | 148 kts | 242° |
| 2026-04-14 13:09 | 33.61487 | -86.66727 | 2208 ft | 144 kts | 240° |
| 2026-04-14 13:10 | 33.60966 | -86.67737 | 1982 ft | 140 kts | 236° |
| 2026-04-14 13:10 | 33.60415 | -86.68672 | 1819 ft | 135 kts | 233° |
| 2026-04-14 13:10 | 33.59857 | -86.69576 | 1679 ft | 134 kts | 233° |
| 2026-04-14 13:10 | 33.59317 | -86.70478 | 1582 ft | 132 kts | 235° |
| 2026-04-14 13:11 | 33.58794 | -86.71393 | 1450 ft | 134 kts | 234° |
| 2026-04-14 13:11 | 33.58269 | -86.72317 | 1254 ft | 138 kts | 235° |
| 2026-04-14 13:11 | 33.57720 | -86.73269 | 1043 ft | 139 kts | 236° |
| 2026-04-14 13:11 | 33.57176 | -86.74211 | 857 ft | 136 kts | 235° |
| 2026-04-14 13:12 | 33.56647 | -86.75134 | 684 ft | 126 kts | 235° |
| 2026-04-14 13:12 | 33.56244 | -86.75840 | 652 ft | 78 kts | 235° |
| 2026-04-14 13:12 | 33.56145 | -86.76024 | 652 ft | 2 kts | 269° |
| 2026-04-14 13:12 | 33.56124 | -86.76070 | 652 ft | 9 kts | 236° |
| 2026-04-14 13:13 | 33.56075 | -86.76135 | 652 ft | 9 kts | 204° |
| 2026-04-14 13:13 | 33.56035 | -86.76122 | 652 ft | 9 kts | 126° |
| 2026-04-14 13:13 | 33.56023 | -86.76031 | 652 ft | 17 kts | 80° |
| 2026-04-14 13:13 | 33.56086 | -86.75895 | 652 ft | 21 kts | 58° |
| 2026-04-14 13:14 | 33.56133 | -86.75751 | 652 ft | 16 kts | 115° |
| 2026-04-14 13:14 | 33.56068 | -86.75652 | 652 ft | 10 kts | 139° |
| 2026-04-14 13:14 | 33.56044 | -86.75625 | 652 ft | 0 kts | 134° |